createdAt,value
2017-07-05T00:02:25.513Z,16.87
2017-07-05T00:04:53.000Z,16.47
2017-07-05T00:07:20.747Z,16.30
2017-07-05T00:09:48.247Z,16.60
2017-07-05T00:12:15.720Z,17.27
2017-07-05T00:14:43.288Z,17.10
2017-07-05T00:17:10.969Z,19.00
2017-07-05T00:19:38.505Z,19.40
2017-07-05T00:22:06.016Z,18.50
2017-07-05T00:24:33.519Z,18.20
2017-07-05T00:27:00.985Z,18.60
2017-07-05T00:29:28.540Z,20.07
2017-07-05T00:31:56.042Z,20.57
2017-07-05T00:34:24.576Z,20.23
2017-07-05T00:36:52.185Z,20.50
2017-07-05T00:39:19.643Z,20.17
2017-07-05T00:41:47.104Z,19.90
2017-07-05T00:44:14.855Z,19.70
2017-07-05T00:46:42.566Z,18.80
2017-07-05T00:49:10.087Z,19.67
2017-07-05T00:51:37.938Z,19.00
2017-07-05T00:54:06.398Z,19.00
2017-07-05T00:56:33.906Z,18.50
2017-07-05T00:59:01.337Z,19.67
2017-07-05T01:04:11.610Z,18.77
2017-07-05T01:06:39.167Z,19.77
2017-07-05T01:09:07.526Z,19.80
2017-07-05T01:11:35.764Z,18.73
2017-07-05T01:14:03.221Z,18.70
2017-07-05T01:16:31.451Z,20.40
2017-07-05T01:18:58.972Z,19.10
2017-07-05T01:21:26.976Z,18.63
2017-07-05T01:23:54.427Z,19.23
2017-07-05T01:26:22.006Z,18.60
2017-07-05T01:28:49.507Z,19.33
2017-07-05T01:31:17.049Z,18.63
2017-07-05T01:33:44.599Z,18.93
2017-07-05T01:36:12.103Z,19.47
2017-07-05T01:38:40.700Z,21.00
2017-07-05T01:41:09.113Z,19.90
2017-07-05T01:43:36.669Z,20.20
2017-07-05T01:46:04.118Z,19.20
2017-07-05T01:48:31.649Z,19.23
2017-07-05T01:50:59.157Z,19.53
2017-07-05T01:53:26.680Z,18.43
2017-07-05T01:55:54.951Z,19.67
2017-07-05T01:58:23.210Z,20.13
2017-07-05T02:00:51.048Z,18.90
2017-07-05T02:03:20.526Z,17.80
2017-07-05T02:05:50.351Z,19.10
2017-07-05T02:08:21.586Z,18.63
2017-07-05T02:10:49.394Z,19.50
2017-07-05T02:13:17.824Z,18.17
2017-07-05T02:15:45.395Z,20.20
2017-07-05T02:18:12.943Z,19.77
2017-07-05T02:20:40.513Z,20.00
2017-07-05T02:23:08.725Z,19.50
2017-07-05T02:25:36.235Z,18.87
2017-07-05T02:28:03.720Z,18.60
2017-07-05T02:30:31.259Z,19.30
2017-07-05T02:32:59.548Z,19.17
2017-07-05T02:35:27.038Z,18.67
2017-07-05T02:37:54.597Z,19.43
2017-07-05T02:40:22.181Z,18.77
2017-07-05T02:42:49.728Z,19.50
2017-07-05T02:45:17.261Z,18.37
2017-07-05T02:47:44.983Z,19.03
2017-07-05T02:50:12.496Z,20.23
2017-07-05T02:52:40.695Z,19.43
2017-07-05T02:55:08.167Z,21.30
2017-07-05T02:57:35.638Z,20.47
2017-07-05T03:00:03.147Z,20.33
2017-07-05T03:02:30.697Z,18.63
2017-07-05T03:04:58.198Z,19.90
2017-07-05T03:07:25.720Z,21.87
2017-07-05T03:09:54.357Z,19.90
2017-07-05T03:12:23.008Z,19.60
2017-07-05T03:14:50.806Z,19.73
2017-07-05T03:17:18.429Z,20.60
2017-07-05T03:19:47.110Z,19.77
2017-07-05T03:22:14.722Z,19.60
2017-07-05T03:24:42.238Z,19.47
2017-07-05T03:27:09.741Z,19.60
2017-07-05T03:29:38.036Z,20.67
2017-07-05T03:32:05.510Z,19.23
2017-07-05T03:34:33.004Z,20.53
2017-07-05T03:37:01.140Z,19.73
2017-07-05T03:39:28.618Z,20.00
2017-07-05T03:41:56.200Z,19.40
2017-07-05T03:44:23.766Z,21.03
2017-07-05T03:46:51.637Z,19.17
2017-07-05T03:49:19.123Z,19.67
2017-07-05T03:51:46.600Z,20.67
2017-07-05T03:54:14.127Z,19.00
2017-07-05T03:56:42.409Z,19.00
2017-07-05T03:59:09.902Z,18.70
2017-07-05T04:01:37.536Z,19.20
2017-07-05T04:04:05.067Z,19.43
2017-07-05T04:06:32.601Z,18.03
2017-07-05T04:09:00.092Z,18.73
2017-07-05T04:11:28.871Z,18.10
2017-07-05T04:13:56.412Z,18.80
2017-07-05T04:16:24.012Z,18.73
2017-07-05T04:18:51.516Z,19.00
2017-07-05T04:21:18.971Z,19.63
2017-07-05T04:23:47.085Z,19.97
2017-07-05T04:26:14.700Z,19.80
2017-07-05T04:28:42.249Z,20.03
2017-07-05T04:31:10.677Z,19.20
2017-07-05T04:33:38.192Z,19.63
2017-07-05T04:36:05.654Z,19.77
2017-07-05T04:38:34.548Z,18.30
2017-07-05T04:41:11.158Z,19.10
2017-07-05T04:43:39.116Z,18.97
2017-07-05T04:46:07.611Z,21.50
2017-07-05T04:48:35.445Z,18.20
2017-07-05T04:51:12.224Z,18.87
2017-07-05T04:56:30.427Z,18.63
2017-07-05T04:58:58.480Z,19.10
2017-07-05T05:01:26.095Z,18.40
2017-07-05T05:03:55.255Z,18.70
2017-07-05T05:06:45.097Z,18.20
2017-07-05T05:09:20.948Z,19.10
2017-07-05T05:11:51.878Z,20.10
2017-07-05T05:17:02.137Z,19.90
2017-07-05T05:19:29.713Z,19.73
2017-07-05T05:28:18.069Z,19.00
2017-07-05T05:30:56.215Z,18.93
2017-07-05T05:36:18.877Z,19.20
2017-07-05T05:38:56.919Z,19.40
2017-07-05T05:41:28.299Z,20.10
2017-07-05T05:44:03.983Z,19.50
2017-07-05T05:46:53.393Z,19.47
2017-07-05T05:52:00.805Z,19.23
2017-07-05T05:54:28.453Z,17.80
2017-07-05T05:56:58.931Z,20.03
2017-07-05T05:59:26.632Z,17.37
2017-07-05T06:01:54.266Z,18.07
2017-07-05T06:04:22.172Z,18.03
2017-07-05T06:06:49.739Z,17.40
2017-07-05T06:09:19.017Z,16.60
2017-07-05T06:11:46.524Z,16.13
2017-07-05T06:14:15.023Z,17.43
2017-07-05T06:16:44.548Z,15.83
2017-07-05T06:19:12.152Z,18.10
2017-07-05T06:21:39.656Z,16.63
2017-07-05T06:24:07.196Z,17.17
2017-07-05T06:26:34.750Z,16.27
2017-07-05T06:29:02.369Z,17.63
2017-07-05T06:31:30.029Z,16.50
2017-07-05T06:33:57.696Z,16.10
2017-07-05T06:36:27.474Z,16.67
2017-07-05T06:38:55.152Z,16.87
2017-07-05T06:41:23.820Z,16.30
2017-07-05T06:43:51.624Z,13.73
2017-07-05T06:46:20.070Z,15.27
2017-07-05T06:48:47.738Z,15.70
2017-07-05T06:51:15.312Z,14.40
2017-07-05T06:53:44.340Z,16.57
2017-07-05T06:56:11.804Z,15.20
2017-07-05T06:58:40.913Z,16.13
2017-07-05T07:01:09.105Z,15.27
2017-07-05T07:03:36.629Z,18.53
2017-07-05T07:06:04.907Z,15.70
2017-07-05T07:08:36.551Z,17.07
2017-07-05T07:11:10.168Z,16.73
2017-07-05T07:13:39.666Z,16.20
2017-07-05T07:16:15.469Z,17.83
2017-07-05T07:18:51.650Z,18.20
2017-07-05T07:21:20.061Z,17.37
2017-07-05T07:23:47.673Z,19.27
2017-07-05T07:26:15.221Z,17.70
2017-07-05T07:28:50.359Z,18.47
2017-07-05T07:31:18.103Z,16.90
2017-07-05T07:33:55.411Z,17.27
2017-07-05T07:36:23.744Z,18.43
2017-07-05T07:38:51.304Z,16.97
2017-07-05T07:41:19.184Z,17.90
2017-07-05T07:43:47.829Z,17.83
2017-07-05T07:46:15.400Z,17.83
2017-07-05T07:48:43.952Z,17.20
2017-07-05T07:51:12.738Z,17.83
2017-07-05T07:53:41.996Z,19.67
2017-07-05T07:56:09.513Z,17.17
2017-07-05T08:01:21.282Z,18.00
2017-07-05T08:03:48.835Z,19.90
2017-07-05T08:06:28.095Z,19.47
2017-07-05T08:08:58.137Z,18.23
2017-07-05T08:11:34.472Z,19.33
2017-07-05T08:16:43.077Z,18.80
2017-07-05T08:19:12.799Z,19.37
2017-07-05T08:21:42.039Z,20.27
2017-07-05T08:24:13.489Z,20.27
2017-07-05T08:26:50.085Z,21.27
2017-07-05T08:29:17.768Z,18.40
2017-07-05T08:31:45.496Z,20.83
2017-07-05T08:34:12.994Z,20.27
2017-07-05T08:36:40.563Z,20.47
2017-07-05T08:39:08.121Z,20.67
2017-07-05T08:41:40.158Z,22.53
2017-07-05T08:44:07.708Z,20.33
2017-07-05T08:46:35.591Z,21.40
2017-07-05T08:49:03.191Z,19.30
2017-07-05T08:51:31.796Z,21.90
2017-07-05T08:53:59.283Z,20.90
2017-07-05T08:56:26.914Z,22.53
2017-07-05T08:59:03.845Z,22.17
2017-07-05T09:01:41.099Z,21.30
2017-07-05T09:04:09.413Z,21.10
2017-07-05T09:06:51.389Z,21.20
2017-07-05T09:09:22.124Z,19.60
2017-07-05T09:12:01.036Z,22.33
2017-07-05T09:14:28.731Z,23.67
2017-07-05T09:16:56.369Z,23.10
2017-07-05T09:19:23.865Z,22.03
2017-07-05T09:21:51.462Z,21.43
2017-07-05T09:24:18.978Z,22.07
2017-07-05T09:26:46.586Z,19.40
2017-07-05T09:29:14.371Z,20.70
2017-07-05T09:31:42.020Z,22.10
2017-07-05T09:34:10.206Z,23.07
2017-07-05T09:36:38.685Z,21.50
2017-07-05T09:39:07.430Z,22.17
2017-07-05T09:41:36.458Z,22.10
2017-07-05T10:19:27.881Z,18.30
2017-07-05T10:47:49.685Z,16.40
2017-07-05T11:24:43.574Z,17.83
2017-07-05T11:27:29.758Z,16.70
2017-07-05T12:05:42.739Z,13.70
2017-07-05T12:12:16.119Z,13.10
2017-07-05T12:15:03.958Z,12.93
2017-07-05T13:39:33.399Z,12.40
2017-07-05T13:42:02.690Z,13.40
2017-07-05T13:44:34.139Z,14.80
2017-07-05T13:47:07.103Z,15.63
2017-07-05T13:49:40.328Z,13.67
2017-07-05T13:52:07.922Z,13.87
2017-07-05T13:54:38.048Z,13.10
2017-07-05T13:57:13.314Z,14.73
2017-07-05T13:59:54.784Z,13.20
2017-07-05T14:08:11.926Z,15.43
2017-07-05T14:10:43.286Z,14.47
2017-07-05T14:13:10.942Z,13.40
2017-07-05T14:15:39.519Z,12.13
2017-07-05T14:18:16.590Z,13.10
2017-07-05T14:21:08.942Z,16.57
2017-07-05T14:23:40.260Z,14.57
2017-07-05T14:26:25.281Z,14.13
2017-07-05T14:31:30.765Z,13.40
2017-07-05T14:34:02.417Z,12.50
2017-07-05T14:36:39.603Z,13.87
2017-07-05T14:39:08.210Z,14.00
2017-07-05T14:41:41.171Z,15.90
2017-07-05T14:44:11.396Z,14.47
2017-07-05T14:46:40.965Z,13.20
2017-07-05T14:49:08.856Z,14.37
2017-07-05T14:51:39.104Z,13.80
2017-07-05T14:54:06.808Z,13.90
2017-07-05T14:59:23.721Z,12.37
2017-07-05T15:01:53.206Z,15.90
2017-07-05T15:04:21.896Z,13.63
2017-07-05T15:06:56.309Z,13.50
2017-07-05T15:09:38.677Z,13.13
2017-07-05T15:12:20.680Z,13.40
2017-07-05T15:14:54.644Z,13.20
2017-07-05T15:17:25.949Z,13.67
2017-07-05T15:19:55.778Z,14.50
2017-07-05T15:22:27.340Z,13.00
2017-07-05T15:25:20.327Z,14.73
2017-07-05T15:28:03.524Z,14.10
2017-07-05T15:30:32.816Z,15.13
2017-07-05T15:33:02.576Z,12.67
2017-07-05T15:35:32.871Z,15.40
2017-07-05T15:38:02.089Z,14.83
2017-07-05T15:40:30.512Z,13.87
2017-07-05T15:42:58.294Z,15.50
2017-07-05T15:45:25.862Z,17.47
2017-07-05T15:47:53.449Z,14.33
2017-07-05T15:50:22.337Z,15.03
2017-07-05T15:52:50.812Z,14.30
2017-07-05T15:55:18.330Z,13.60
2017-07-05T15:57:48.902Z,16.00
2017-07-05T16:00:16.673Z,13.77
2017-07-05T16:02:46.866Z,12.57
2017-07-05T16:05:16.459Z,16.77
2017-07-05T16:07:44.221Z,13.80
2017-07-05T16:10:12.497Z,14.87
2017-07-05T16:12:41.489Z,12.60
2017-07-05T16:15:10.000Z,13.47
2017-07-05T16:17:43.619Z,14.20
2017-07-05T16:20:12.879Z,13.67
2017-07-05T16:22:41.650Z,14.90
2017-07-05T16:25:10.422Z,15.23
2017-07-05T16:27:44.972Z,13.60
2017-07-05T16:30:12.706Z,14.30
2017-07-05T16:32:43.765Z,16.80
2017-07-05T16:35:12.800Z,14.87
2017-07-05T16:37:45.689Z,14.33
2017-07-05T16:40:14.261Z,13.70
2017-07-05T16:45:18.727Z,14.23
2017-07-05T16:47:49.746Z,13.33
2017-07-05T16:50:40.570Z,15.57
2017-07-05T16:53:22.054Z,14.10
2017-07-05T16:55:53.889Z,15.07
2017-07-05T16:58:21.945Z,13.60
2017-07-05T17:00:49.618Z,14.90
2017-07-05T17:03:17.251Z,16.10
2017-07-05T17:05:46.100Z,17.83
2017-07-05T17:08:21.630Z,12.67
2017-07-05T17:11:00.933Z,13.27
2017-07-05T17:13:28.841Z,11.70
2017-07-05T17:15:58.524Z,11.07
2017-07-05T17:18:26.994Z,11.77
2017-07-05T17:20:55.597Z,11.70
2017-07-05T17:23:25.998Z,12.17
2017-07-05T17:25:54.860Z,11.63
2017-07-05T17:28:23.785Z,10.40
2017-07-05T17:31:00.215Z,10.73
2017-07-05T17:33:31.256Z,9.93
2017-07-05T17:36:04.191Z,10.37
2017-07-05T17:38:35.952Z,9.80
2017-07-05T17:41:16.629Z,10.00
2017-07-05T17:43:45.305Z,10.20
2017-07-05T17:46:13.385Z,10.70
2017-07-05T17:48:42.799Z,9.93
2017-07-05T17:51:10.681Z,13.33
2017-07-05T17:53:49.911Z,10.07
2017-07-05T17:56:18.829Z,10.33
2017-07-05T17:58:46.492Z,9.70
2017-07-05T18:01:14.597Z,8.80
2017-07-05T18:03:43.895Z,9.93
2017-07-05T18:06:15.421Z,9.93
2017-07-05T18:08:48.842Z,11.00
2017-07-05T18:11:34.501Z,9.00
2017-07-05T18:17:20.373Z,8.30
2017-07-05T18:19:49.342Z,9.27
2017-07-05T18:22:26.217Z,9.30
2017-07-05T18:25:08.773Z,9.83
2017-07-05T18:27:42.627Z,8.80
2017-07-05T18:30:15.430Z,9.37
2017-07-05T18:42:56.569Z,12.70
2017-07-05T18:45:27.777Z,13.40
2017-07-05T18:50:36.031Z,12.30
2017-07-05T18:53:26.146Z,12.10
2017-07-05T18:55:56.485Z,12.77
2017-07-05T18:58:58.235Z,14.60
2017-07-05T19:01:34.839Z,11.30
2017-07-05T19:04:04.259Z,11.40
2017-07-05T19:06:40.893Z,10.93
2017-07-05T19:09:18.848Z,11.63
2017-07-05T19:11:52.496Z,11.23
2017-07-05T19:14:35.584Z,12.00
2017-07-05T19:17:06.611Z,13.83
2017-07-05T19:22:17.567Z,11.63
2017-07-05T19:24:46.938Z,11.63
2017-07-05T19:27:20.758Z,11.00
2017-07-05T19:29:49.173Z,11.60
2017-07-05T19:35:09.756Z,12.60
2017-07-05T19:37:42.138Z,12.50
2017-07-05T19:40:26.151Z,12.57
2017-07-05T19:42:54.641Z,13.47
2017-07-05T19:46:02.879Z,12.60
2017-07-05T19:48:33.007Z,15.50
2017-07-05T19:51:00.953Z,15.30
2017-07-05T19:53:30.384Z,13.40
2017-07-05T19:55:58.802Z,12.67
2017-07-05T19:58:28.236Z,14.90
2017-07-05T20:01:06.840Z,13.93
2017-07-05T20:03:42.829Z,13.43
2017-07-05T20:06:12.389Z,14.30
2017-07-05T20:08:41.014Z,15.63
2017-07-05T20:11:09.334Z,13.70
2017-07-05T20:13:37.173Z,12.97
2017-07-05T20:16:04.906Z,14.47
2017-07-05T20:18:32.601Z,15.00
2017-07-05T20:21:02.309Z,16.53
2017-07-05T20:23:30.790Z,15.53
2017-07-05T20:25:58.281Z,14.67
2017-07-05T20:28:26.736Z,17.00
2017-07-05T20:30:55.197Z,17.53
2017-07-05T20:33:22.770Z,15.80
2017-07-05T20:35:51.014Z,15.97
2017-07-05T20:38:19.422Z,17.50
2017-07-05T20:40:48.523Z,16.30
2017-07-05T20:43:16.193Z,17.03
2017-07-05T20:45:48.099Z,16.50
2017-07-05T20:50:56.380Z,16.90
2017-07-05T20:53:24.128Z,16.03
2017-07-05T20:55:51.732Z,15.20
2017-07-05T20:58:21.081Z,15.10
2017-07-05T21:00:55.344Z,15.57
2017-07-05T21:03:27.486Z,19.97
2017-07-05T21:05:55.168Z,15.90
2017-07-05T21:11:09.704Z,16.83
2017-07-05T21:13:38.260Z,16.77
2017-07-05T21:16:06.073Z,16.90
2017-07-05T21:18:38.118Z,16.90
2017-07-05T21:21:06.583Z,17.13
2017-07-05T21:23:35.697Z,17.80
2017-07-05T21:26:04.061Z,19.50
2017-07-05T21:28:32.992Z,19.47
2017-07-05T21:31:00.631Z,16.20
2017-07-05T21:33:29.899Z,16.67
2017-07-05T21:35:57.773Z,16.87
2017-07-05T21:38:30.670Z,16.10
2017-07-05T21:40:59.188Z,17.80
2017-07-05T21:43:27.360Z,16.30
2017-07-05T21:45:56.880Z,20.20
2017-07-05T21:48:26.961Z,17.87
2017-07-05T21:50:57.530Z,17.03
2017-07-05T21:53:25.711Z,16.63
2017-07-05T21:55:54.327Z,17.10
2017-07-05T21:58:23.151Z,18.33
2017-07-05T22:00:52.209Z,18.40
2017-07-05T22:03:20.412Z,17.00
2017-07-05T22:05:54.805Z,18.23
2017-07-05T22:08:22.318Z,17.23
2017-07-05T22:10:49.841Z,18.93
2017-07-05T22:13:19.712Z,20.00
2017-07-05T22:15:48.686Z,19.03
2017-07-05T22:18:16.248Z,18.93
2017-07-05T22:20:44.751Z,20.17
2017-07-05T22:23:13.213Z,18.90
2017-07-05T22:25:44.472Z,18.07
2017-07-05T22:28:11.963Z,19.37
2017-07-05T22:30:41.019Z,21.40
2017-07-05T22:33:12.081Z,21.87
2017-07-05T22:35:39.689Z,19.80
2017-07-05T22:38:07.214Z,19.17
2017-07-05T22:44:05.884Z,22.47
2017-07-05T22:46:33.425Z,19.77
2017-07-05T22:49:00.869Z,17.97
2017-07-05T22:51:28.352Z,19.17
2017-07-05T22:53:57.047Z,17.97
2017-07-05T22:56:27.991Z,18.27
2017-07-05T22:58:55.743Z,19.50
2017-07-05T23:01:29.300Z,18.97
2017-07-05T23:03:57.536Z,18.50
2017-07-05T23:06:24.989Z,18.70
2017-07-05T23:08:53.532Z,18.20
2017-07-05T23:11:20.981Z,18.80
2017-07-05T23:13:48.446Z,18.73
2017-07-05T23:16:15.899Z,20.13
2017-07-05T23:18:44.180Z,19.40
2017-07-05T23:21:11.633Z,19.10
2017-07-05T23:23:39.503Z,19.97
2017-07-05T23:26:06.997Z,19.63
2017-07-05T23:28:34.473Z,20.03
2017-07-05T23:31:01.940Z,19.40
2017-07-05T23:33:29.434Z,18.93
2017-07-05T23:35:57.820Z,19.87
2017-07-05T23:38:26.870Z,19.60
2017-07-05T23:40:54.477Z,20.03
2017-07-05T23:43:21.999Z,19.03
2017-07-05T23:45:49.507Z,21.23
2017-07-05T23:48:16.967Z,21.83
2017-07-05T23:50:44.567Z,20.90
2017-07-05T23:53:12.022Z,21.10
2017-07-05T23:55:39.499Z,19.90
2017-07-05T23:58:06.948Z,20.20
